createdAt,value
2018-07-30T00:00:16.278Z,0.00
2018-07-30T00:01:16.320Z,0.00
2018-07-30T00:02:16.358Z,0.00
2018-07-30T00:03:16.406Z,0.00
2018-07-30T00:04:16.445Z,0.00
2018-07-30T00:05:16.490Z,0.00
2018-07-30T00:06:16.528Z,0.00
2018-07-30T00:07:16.560Z,0.00
2018-07-30T00:08:16.601Z,0.00
2018-07-30T00:09:16.644Z,0.00
2018-07-30T00:10:16.681Z,0.00
2018-07-30T00:11:16.729Z,0.00
2018-07-30T00:12:16.761Z,0.00
2018-07-30T00:13:16.803Z,0.00
2018-07-30T00:14:16.875Z,0.00
2018-07-30T00:15:16.884Z,0.00
2018-07-30T00:16:16.924Z,0.00
2018-07-30T00:17:16.966Z,0.00
2018-07-30T00:18:17.003Z,0.00
2018-07-30T00:19:17.049Z,0.00
2018-07-30T00:20:17.085Z,0.00
2018-07-30T00:21:17.135Z,0.00
2018-07-30T00:22:17.166Z,0.00
2018-07-30T00:23:17.205Z,0.00
2018-07-30T00:24:17.246Z,0.00
2018-07-30T00:25:17.285Z,0.00
2018-07-30T00:26:17.326Z,0.00
2018-07-30T00:27:17.365Z,0.00
2018-07-30T00:28:17.406Z,0.00
2018-07-30T00:29:17.446Z,0.00
2018-07-30T00:30:17.490Z,0.00
2018-07-30T00:31:17.563Z,0.00
2018-07-30T00:32:17.565Z,0.00
2018-07-30T00:33:17.614Z,0.00
2018-07-30T00:34:17.652Z,0.00
2018-07-30T00:35:17.686Z,0.00
2018-07-30T00:36:17.727Z,0.00
2018-07-30T00:37:17.766Z,0.00
2018-07-30T00:38:17.812Z,0.00
2018-07-30T00:39:17.847Z,0.00
2018-07-30T00:40:17.887Z,0.00
2018-07-30T00:41:17.928Z,0.00
2018-07-30T00:42:17.980Z,0.00
2018-07-30T00:43:18.010Z,0.00
2018-07-30T00:44:18.045Z,0.00
2018-07-30T00:45:18.084Z,0.00
2018-07-30T00:46:18.124Z,0.00
2018-07-30T00:47:18.165Z,0.00
2018-07-30T00:48:18.268Z,0.00
2018-07-30T00:49:18.247Z,0.00
2018-07-30T00:50:18.285Z,0.00
2018-07-30T00:51:18.327Z,0.00
2018-07-30T00:52:18.367Z,0.00
2018-07-30T00:53:18.407Z,0.00
2018-07-30T00:54:18.445Z,0.00
2018-07-30T00:55:18.490Z,0.00
2018-07-30T00:56:18.535Z,0.00
2018-07-30T00:57:18.568Z,0.00
2018-07-30T00:58:18.609Z,0.00
2018-07-30T00:59:18.643Z,0.00
2018-07-30T01:00:18.684Z,0.00
2018-07-30T01:01:18.724Z,0.00
2018-07-30T01:02:18.761Z,0.00
2018-07-30T01:03:18.802Z,0.00
2018-07-30T01:04:18.842Z,0.00
2018-07-30T01:05:18.882Z,0.00
2018-07-30T01:06:18.922Z,0.00
2018-07-30T01:07:18.963Z,0.00
2018-07-30T01:08:19.008Z,0.00
2018-07-30T01:09:19.043Z,0.00
2018-07-30T01:10:19.081Z,0.00
2018-07-30T01:11:19.123Z,0.00
2018-07-30T01:12:19.160Z,0.00
2018-07-30T01:13:19.201Z,0.00
2018-07-30T01:14:19.295Z,0.00
2018-07-30T01:15:19.287Z,0.00
2018-07-30T01:16:19.321Z,0.00
2018-07-30T01:17:19.359Z,0.00
2018-07-30T01:18:19.399Z,0.00
2018-07-30T01:19:19.438Z,0.00
2018-07-30T01:20:19.519Z,0.00
2018-07-30T01:21:19.519Z,0.00
2018-07-30T01:22:19.556Z,0.00
2018-07-30T01:23:19.605Z,0.00
2018-07-30T01:24:19.637Z,0.00
2018-07-30T01:25:19.727Z,0.00
2018-07-30T01:26:19.719Z,0.00
2018-07-30T01:27:19.768Z,0.00
2018-07-30T01:28:19.797Z,0.00
2018-07-30T01:29:19.841Z,0.00
2018-07-30T01:30:19.873Z,0.00
2018-07-30T01:31:19.915Z,0.00
2018-07-30T01:32:19.954Z,0.00
2018-07-30T01:33:19.992Z,0.00
2018-07-30T01:34:20.033Z,0.00
2018-07-30T01:35:20.073Z,0.00
2018-07-30T01:36:20.113Z,0.00
2018-07-30T01:37:20.151Z,0.00
2018-07-30T01:38:20.191Z,0.00
2018-07-30T01:39:20.231Z,0.00
2018-07-30T01:40:20.270Z,0.00
2018-07-30T01:41:20.324Z,0.00
2018-07-30T01:42:20.350Z,0.00
2018-07-30T01:43:20.395Z,0.00
2018-07-30T01:44:20.429Z,0.00
2018-07-30T01:45:20.468Z,0.00
2018-07-30T01:46:20.506Z,0.00
2018-07-30T01:47:20.548Z,0.00
2018-07-30T01:48:20.586Z,0.00
2018-07-30T01:49:20.636Z,0.00
2018-07-30T01:50:20.667Z,0.00
2018-07-30T01:51:20.705Z,0.00
2018-07-30T01:52:20.749Z,0.00
2018-07-30T01:53:20.785Z,0.00
2018-07-30T01:54:20.823Z,0.00
2018-07-30T01:55:20.906Z,0.00
2018-07-30T01:56:20.903Z,0.00
2018-07-30T01:57:20.942Z,0.00
2018-07-30T01:58:20.983Z,0.00
2018-07-30T01:59:21.021Z,0.00
2018-07-30T02:00:21.060Z,0.00
2018-07-30T02:01:21.107Z,0.00
2018-07-30T02:02:21.138Z,0.00
2018-07-30T02:03:21.179Z,0.00
2018-07-30T02:04:21.219Z,0.00
2018-07-30T02:05:21.260Z,0.00
2018-07-30T02:06:21.298Z,0.00
2018-07-30T02:07:21.337Z,0.00
2018-07-30T02:08:21.377Z,0.00
2018-07-30T02:09:21.417Z,0.00
2018-07-30T02:10:21.454Z,0.00
2018-07-30T02:11:21.494Z,0.00
2018-07-30T02:12:21.532Z,0.00
2018-07-30T02:13:21.574Z,0.00
2018-07-30T02:14:21.612Z,0.00
2018-07-30T02:15:21.652Z,0.00
2018-07-30T02:16:21.691Z,0.00
2018-07-30T02:17:21.732Z,0.00
2018-07-30T02:18:21.769Z,0.00
2018-07-30T02:19:21.817Z,0.00
2018-07-30T02:20:21.847Z,0.00
2018-07-30T02:21:21.909Z,0.00
2018-07-30T02:22:21.926Z,0.00
2018-07-30T02:23:21.966Z,0.00
2018-07-30T02:24:22.008Z,0.00
2018-07-30T02:25:22.045Z,0.00
2018-07-30T02:26:22.083Z,0.00
2018-07-30T02:27:22.124Z,0.00
2018-07-30T02:28:22.167Z,0.00
2018-07-30T02:29:22.201Z,0.00
2018-07-30T02:30:22.239Z,0.00
2018-07-30T02:31:22.282Z,0.00
2018-07-30T02:32:22.318Z,0.00
2018-07-30T02:33:22.358Z,0.00
2018-07-30T02:34:22.397Z,0.00
2018-07-30T02:35:22.438Z,0.00
2018-07-30T02:36:22.475Z,0.00
2018-07-30T02:37:22.515Z,0.00
2018-07-30T02:38:22.554Z,0.00
2018-07-30T02:39:22.594Z,0.00
2018-07-30T02:40:22.634Z,0.00
2018-07-30T02:41:22.685Z,0.00
2018-07-30T02:42:22.709Z,0.00
2018-07-30T02:43:22.750Z,0.00
2018-07-30T02:44:22.788Z,0.00
2018-07-30T02:45:22.831Z,0.00
2018-07-30T02:46:22.867Z,0.00
2018-07-30T02:47:22.907Z,0.00
2018-07-30T02:48:22.946Z,0.00
2018-07-30T02:49:22.983Z,0.00
2018-07-30T02:50:23.023Z,0.00
2018-07-30T02:51:23.066Z,0.00
2018-07-30T02:52:23.103Z,0.00
2018-07-30T02:53:23.141Z,0.00
2018-07-30T02:54:23.180Z,0.00
2018-07-30T02:55:23.219Z,0.00
2018-07-30T02:56:23.257Z,0.00
2018-07-30T02:57:23.297Z,0.00
2018-07-30T02:58:23.339Z,0.00
2018-07-30T02:59:23.388Z,0.00
2018-07-30T03:00:23.414Z,4.00
2018-07-30T03:01:23.453Z,4.00
2018-07-30T03:02:23.492Z,4.00
2018-07-30T03:03:23.532Z,0.00
2018-07-30T03:04:23.573Z,4.00
2018-07-30T03:05:23.609Z,4.00
2018-07-30T03:06:23.648Z,4.00
2018-07-30T03:07:23.692Z,4.00
2018-07-30T03:08:23.726Z,4.00
2018-07-30T03:09:23.831Z,4.00
2018-07-30T03:10:23.803Z,8.00
2018-07-30T03:11:23.844Z,8.00
2018-07-30T03:12:23.882Z,12.00
2018-07-30T03:13:23.922Z,12.00
2018-07-30T03:14:23.960Z,16.00
2018-07-30T03:15:23.999Z,12.00
2018-07-30T03:16:24.039Z,20.00
2018-07-30T03:17:24.086Z,20.00
2018-07-30T03:18:24.119Z,24.00
2018-07-30T03:19:24.162Z,24.00
2018-07-30T03:20:24.198Z,32.00
2018-07-30T03:21:24.235Z,36.00
2018-07-30T03:22:24.274Z,40.00
2018-07-30T03:23:24.312Z,44.00
2018-07-30T03:24:24.352Z,52.00
2018-07-30T03:25:24.391Z,60.00
2018-07-30T03:26:24.430Z,68.00
2018-07-30T03:27:24.468Z,72.00
2018-07-30T03:28:24.507Z,84.00
2018-07-30T03:29:24.545Z,92.00
2018-07-30T03:30:24.588Z,104.00
2018-07-30T03:31:24.622Z,112.00
2018-07-30T03:32:24.670Z,128.00
2018-07-30T03:33:24.703Z,140.00
2018-07-30T03:34:24.744Z,156.00
2018-07-30T03:35:24.778Z,172.00
2018-07-30T03:36:24.818Z,188.00
2018-07-30T03:37:24.857Z,204.00
2018-07-30T03:38:24.895Z,228.00
2018-07-30T03:39:24.940Z,244.00
2018-07-30T03:40:24.976Z,268.00
2018-07-30T03:41:25.017Z,292.00
2018-07-30T03:42:25.082Z,316.00
2018-07-30T03:43:25.092Z,340.00
2018-07-30T03:44:25.137Z,368.00
2018-07-30T03:45:25.168Z,400.00
2018-07-30T03:46:25.207Z,428.00
2018-07-30T03:47:25.246Z,456.00
2018-07-30T03:48:25.286Z,492.00
2018-07-30T03:49:25.345Z,536.00
2018-07-30T03:50:25.363Z,580.00
2018-07-30T03:51:25.401Z,628.00
2018-07-30T03:52:25.440Z,676.00
2018-07-30T03:53:25.482Z,728.00
2018-07-30T03:54:25.517Z,780.00
2018-07-30T03:55:25.560Z,836.00
2018-07-30T03:56:25.601Z,892.00
2018-07-30T03:57:25.635Z,948.00
2018-07-30T03:58:25.673Z,1008.00
2018-07-30T03:59:25.723Z,1076.00
2018-07-30T04:00:25.909Z,1144.00
2018-07-30T04:01:25.791Z,1220.00
2018-07-30T04:02:25.828Z,1288.00
2018-07-30T04:03:25.869Z,1356.00
2018-07-30T04:04:25.916Z,1416.00
2018-07-30T04:05:25.947Z,1480.00
2018-07-30T04:06:26.046Z,1552.00
2018-07-30T04:07:26.025Z,1616.00
2018-07-30T04:08:26.072Z,1684.00
2018-07-30T04:09:26.102Z,1748.00
2018-07-30T04:10:26.141Z,1812.00
2018-07-30T04:11:26.181Z,1868.00
2018-07-30T04:12:26.220Z,1928.00
2018-07-30T04:13:26.258Z,1992.00
2018-07-30T04:14:26.297Z,2060.00
2018-07-30T04:15:26.336Z,2128.00
2018-07-30T04:16:26.378Z,2176.00
2018-07-30T04:17:26.419Z,2220.00
2018-07-30T04:18:26.452Z,2244.00
2018-07-30T04:19:26.492Z,2276.00
2018-07-30T04:20:26.532Z,2304.00
2018-07-30T04:21:26.571Z,2332.00
2018-07-30T04:22:26.609Z,2356.00
2018-07-30T04:23:26.648Z,2384.00
2018-07-30T04:24:26.695Z,2408.00
2018-07-30T04:25:26.728Z,2428.00
2018-07-30T04:26:26.768Z,2460.00
2018-07-30T04:27:26.804Z,2492.00
2018-07-30T04:28:26.848Z,2528.00
2018-07-30T04:29:26.883Z,2568.00
2018-07-30T04:30:26.920Z,2616.00
2018-07-30T04:31:26.960Z,2676.00
2018-07-30T04:32:26.999Z,2732.00
2018-07-30T04:33:27.038Z,2752.00
2018-07-30T04:34:27.078Z,2748.00
2018-07-30T04:35:27.114Z,2752.00
2018-07-30T04:36:27.254Z,2780.00
2018-07-30T04:37:27.193Z,2820.00
2018-07-30T04:38:27.231Z,2852.00
2018-07-30T04:39:27.270Z,2880.00
2018-07-30T04:40:27.310Z,2908.00
2018-07-30T04:41:27.350Z,2924.00
2018-07-30T04:42:27.387Z,2892.00
2018-07-30T04:43:27.428Z,2824.00
2018-07-30T04:44:27.474Z,2848.00
2018-07-30T04:45:27.508Z,2928.00
2018-07-30T04:46:27.548Z,3052.00
2018-07-30T04:47:27.582Z,3216.00
2018-07-30T04:48:27.673Z,3264.00
2018-07-30T04:49:27.666Z,3236.00
2018-07-30T04:50:27.704Z,3208.00
2018-07-30T04:51:27.742Z,3212.00
2018-07-30T04:52:27.784Z,3256.00
2018-07-30T04:53:27.820Z,3408.00
2018-07-30T04:54:27.865Z,3580.00
2018-07-30T04:55:27.898Z,3704.00
2018-07-30T04:56:27.945Z,3864.00
2018-07-30T04:57:27.987Z,3988.00
2018-07-30T04:58:28.014Z,4052.00
2018-07-30T04:59:28.056Z,4188.00
2018-07-30T05:00:28.094Z,4300.00
2018-07-30T05:01:28.132Z,4400.00
2018-07-30T05:02:28.170Z,4448.00
2018-07-30T05:03:28.209Z,4540.00
2018-07-30T05:04:28.248Z,4624.00
2018-07-30T05:05:28.288Z,4552.00
2018-07-30T05:06:28.326Z,4540.00
2018-07-30T05:07:28.365Z,4608.00
2018-07-30T05:08:28.408Z,4624.00
2018-07-30T05:09:28.448Z,4664.00
2018-07-30T05:10:28.483Z,4848.00
2018-07-30T05:11:28.524Z,5052.00
2018-07-30T05:12:28.563Z,5300.00
2018-07-30T05:13:28.603Z,5612.00
2018-07-30T05:14:28.641Z,5932.00
2018-07-30T05:15:28.681Z,6256.00
2018-07-30T05:16:28.720Z,6568.00
2018-07-30T05:17:28.759Z,6868.00
2018-07-30T05:18:28.801Z,7012.00
2018-07-30T05:19:28.972Z,7048.00
2018-07-30T05:20:28.878Z,6992.00
2018-07-30T05:21:28.917Z,6868.00
2018-07-30T05:22:28.959Z,6728.00
2018-07-30T05:23:28.997Z,6552.00
2018-07-30T05:24:29.035Z,6276.00
2018-07-30T05:25:29.079Z,5972.00
2018-07-30T05:26:29.165Z,5836.00
2018-07-30T05:27:29.154Z,5700.00
2018-07-30T05:28:29.193Z,5604.00
2018-07-30T05:29:29.241Z,5656.00
2018-07-30T05:30:29.273Z,5416.00
2018-07-30T05:31:29.321Z,5444.00
2018-07-30T05:32:29.363Z,5400.00
2018-07-30T05:33:29.391Z,5332.00
2018-07-30T05:34:29.431Z,5300.00
2018-07-30T05:35:29.469Z,5292.00
2018-07-30T05:36:29.511Z,5264.00
2018-07-30T05:37:29.553Z,5296.00
2018-07-30T05:38:29.592Z,5392.00
2018-07-30T05:39:29.630Z,5372.00
2018-07-30T05:40:29.670Z,5408.00
2018-07-30T05:41:29.709Z,5596.00
2018-07-30T05:42:29.749Z,5536.00
2018-07-30T05:43:29.788Z,5676.00
2018-07-30T05:44:29.841Z,5916.00
2018-07-30T05:45:29.871Z,5984.00
2018-07-30T05:46:29.909Z,5952.00
2018-07-30T05:47:29.950Z,6004.00
2018-07-30T05:48:29.990Z,6108.00
2018-07-30T05:49:30.031Z,6188.00
2018-07-30T05:50:30.071Z,6300.00
2018-07-30T05:51:30.112Z,6476.00
2018-07-30T05:52:30.149Z,6736.00
2018-07-30T05:53:30.190Z,6748.00
2018-07-30T05:54:30.238Z,6892.00
2018-07-30T05:55:30.270Z,7000.00
2018-07-30T05:56:30.309Z,7188.00
2018-07-30T05:57:30.353Z,7440.00
2018-07-30T05:58:30.389Z,7832.00
2018-07-30T05:59:30.476Z,7716.00
2018-07-30T06:00:30.472Z,7960.00
2018-07-30T06:01:30.511Z,7508.00
2018-07-30T06:02:30.555Z,7188.00
2018-07-30T06:03:30.594Z,6912.00
2018-07-30T06:04:30.635Z,6552.00
2018-07-30T06:05:30.687Z,6224.00
2018-07-30T06:06:30.712Z,6180.00
2018-07-30T06:07:30.751Z,6184.00
2018-07-30T06:08:30.793Z,5788.00
2018-07-30T06:09:30.855Z,5544.00
2018-07-30T06:10:30.872Z,5320.00
2018-07-30T06:11:30.912Z,5484.00
2018-07-30T06:12:30.952Z,5152.00
2018-07-30T06:13:31.000Z,5376.00
2018-07-30T06:14:31.037Z,5348.00
2018-07-30T06:15:31.078Z,5132.00
2018-07-30T06:16:31.117Z,5236.00
2018-07-30T06:17:31.155Z,5500.00
2018-07-30T06:18:31.197Z,5516.00
2018-07-30T06:19:31.237Z,5520.00
2018-07-30T06:20:31.277Z,5500.00
2018-07-30T06:21:31.326Z,5476.00
2018-07-30T06:22:31.360Z,5460.00
2018-07-30T06:23:31.400Z,5452.00
2018-07-30T06:24:31.440Z,5460.00
2018-07-30T06:25:31.482Z,5480.00
2018-07-30T06:26:31.628Z,5524.00
2018-07-30T06:27:31.569Z,5568.00
2018-07-30T06:28:31.604Z,5604.00
2018-07-30T06:29:31.661Z,5628.00
2018-07-30T06:30:31.684Z,5648.00
2018-07-30T06:31:31.725Z,5700.00
2018-07-30T06:32:31.767Z,5800.00
2018-07-30T06:33:31.807Z,5964.00
2018-07-30T06:34:31.847Z,6092.00
2018-07-30T06:35:31.888Z,6116.00
2018-07-30T06:36:31.931Z,6048.00
2018-07-30T06:37:31.969Z,5808.00
2018-07-30T06:38:32.079Z,5712.00
2018-07-30T06:39:32.051Z,5572.00
2018-07-30T06:40:32.093Z,5280.00
2018-07-30T06:41:32.133Z,5176.00
2018-07-30T06:42:32.173Z,5156.00
2018-07-30T06:43:32.214Z,5312.00
2018-07-30T06:44:32.258Z,5456.00
2018-07-30T06:45:32.297Z,5416.00
2018-07-30T06:46:32.338Z,5368.00
2018-07-30T06:47:32.378Z,5312.00
2018-07-30T06:48:32.422Z,5256.00
2018-07-30T06:49:32.463Z,5196.00
2018-07-30T06:50:32.502Z,5144.00
2018-07-30T06:51:32.543Z,5108.00
2018-07-30T06:52:32.584Z,5092.00
2018-07-30T06:53:32.626Z,5080.00
2018-07-30T06:54:32.674Z,5080.00
2018-07-30T06:55:32.717Z,5072.00
2018-07-30T06:56:32.751Z,5064.00
2018-07-30T06:57:32.791Z,5060.00
2018-07-30T06:58:32.836Z,5064.00
2018-07-30T06:59:32.872Z,5052.00
2018-07-30T07:00:32.915Z,5040.00
2018-07-30T07:01:32.956Z,5032.00
2018-07-30T07:02:32.999Z,5020.00
2018-07-30T07:03:33.039Z,5008.00
2018-07-30T07:04:33.080Z,5000.00
2018-07-30T07:05:33.128Z,4992.00
2018-07-30T07:06:33.162Z,4984.00
2018-07-30T07:07:33.204Z,4984.00
2018-07-30T07:08:33.282Z,4980.00
2018-07-30T07:09:33.288Z,4980.00
2018-07-30T07:10:33.334Z,4980.00
2018-07-30T07:11:33.369Z,4976.00
2018-07-30T07:12:33.413Z,4972.00
2018-07-30T07:13:33.453Z,4968.00
2018-07-30T07:14:33.496Z,4964.00
2018-07-30T07:15:33.552Z,4968.00
2018-07-30T07:16:33.635Z,4968.00
2018-07-30T07:17:33.620Z,4968.00
2018-07-30T07:18:33.662Z,4968.00
2018-07-30T07:19:33.702Z,4968.00
2018-07-30T07:20:33.775Z,4964.00
2018-07-30T07:21:33.832Z,4968.00
2018-07-30T07:22:33.828Z,4964.00
2018-07-30T07:23:33.871Z,4960.00
2018-07-30T07:24:33.913Z,4952.00
2018-07-30T07:25:33.956Z,4948.00
2018-07-30T07:26:33.999Z,4940.00
2018-07-30T07:27:34.039Z,4940.00
2018-07-30T07:28:34.079Z,4936.00
2018-07-30T07:29:34.123Z,4936.00
2018-07-30T07:30:34.165Z,4936.00
2018-07-30T07:31:34.205Z,4936.00
2018-07-30T07:32:34.247Z,4936.00
2018-07-30T07:33:34.340Z,4932.00
2018-07-30T07:34:34.331Z,4928.00
2018-07-30T07:35:34.374Z,4920.00
2018-07-30T07:36:34.415Z,4916.00
2018-07-30T07:37:34.458Z,4912.00
2018-07-30T07:38:34.498Z,4908.00
2018-07-30T07:39:34.541Z,4904.00
2018-07-30T07:40:34.585Z,4904.00
2018-07-30T07:41:34.628Z,4904.00
2018-07-30T07:42:34.669Z,4908.00
2018-07-30T07:43:34.715Z,4912.00
2018-07-30T07:44:34.756Z,4916.00
2018-07-30T07:45:34.798Z,4916.00
2018-07-30T07:46:34.841Z,4916.00
2018-07-30T07:47:34.881Z,4912.00
2018-07-30T07:48:34.966Z,4904.00
2018-07-30T07:49:34.966Z,4892.00
2018-07-30T07:50:35.130Z,4880.00
2018-07-30T07:51:35.100Z,4872.00
2018-07-30T07:52:35.095Z,4860.00
2018-07-30T07:53:35.143Z,4852.00
2018-07-30T07:54:35.181Z,4844.00
2018-07-30T07:55:35.221Z,4836.00
2018-07-30T07:56:35.262Z,4828.00
2018-07-30T07:57:35.306Z,4820.00
2018-07-30T07:58:35.350Z,4820.00
2018-07-30T07:59:35.389Z,4820.00
2018-07-30T08:00:35.436Z,4816.00
2018-07-30T08:01:35.474Z,4812.00
2018-07-30T08:02:35.518Z,4804.00
2018-07-30T08:03:35.559Z,4800.00
2018-07-30T08:04:35.602Z,4796.00
2018-07-30T08:05:35.646Z,4800.00
2018-07-30T08:06:35.688Z,4804.00
2018-07-30T08:07:35.733Z,4804.00
2018-07-30T08:08:35.829Z,4804.00
2018-07-30T08:09:35.878Z,4804.00
2018-07-30T08:10:35.860Z,4796.00
2018-07-30T08:11:35.904Z,4792.00
2018-07-30T08:12:35.945Z,4792.00
2018-07-30T08:13:35.995Z,4788.00
2018-07-30T08:14:36.032Z,4784.00
2018-07-30T08:15:36.074Z,4784.00
2018-07-30T08:16:36.122Z,4780.00
2018-07-30T08:17:36.163Z,4788.00
2018-07-30T08:18:36.204Z,4788.00
2018-07-30T08:19:36.248Z,4784.00
2018-07-30T08:20:36.291Z,4780.00
2018-07-30T08:21:36.345Z,4776.00
2018-07-30T08:22:36.384Z,4772.00
2018-07-30T08:23:36.428Z,4760.00
2018-07-30T08:24:36.465Z,4756.00
2018-07-30T08:25:36.507Z,4744.00
2018-07-30T08:26:36.560Z,4732.00
2018-07-30T08:27:36.604Z,4720.00
2018-07-30T08:28:36.636Z,4712.00
2018-07-30T08:29:36.686Z,4704.00
2018-07-30T08:30:36.725Z,4700.00
2018-07-30T08:31:36.767Z,4692.00
2018-07-30T08:32:36.810Z,4688.00
2018-07-30T08:33:36.854Z,4688.00
2018-07-30T08:34:36.897Z,4688.00
2018-07-30T08:35:36.948Z,4692.00
2018-07-30T08:36:36.985Z,4684.00
2018-07-30T08:37:37.031Z,4688.00
2018-07-30T08:38:37.072Z,4696.00
2018-07-30T08:39:37.115Z,4700.00
2018-07-30T08:40:37.160Z,4704.00
2018-07-30T08:41:37.204Z,4708.00
2018-07-30T08:42:37.248Z,4704.00
2018-07-30T08:43:37.291Z,4700.00
2018-07-30T08:44:37.334Z,4700.00
2018-07-30T08:45:37.383Z,4700.00
2018-07-30T08:46:37.433Z,4700.00
2018-07-30T08:47:37.468Z,4692.00
2018-07-30T08:48:37.587Z,4680.00
2018-07-30T08:49:37.557Z,4680.00
2018-07-30T08:50:37.597Z,4676.00
2018-07-30T08:51:37.641Z,4676.00
2018-07-30T08:52:37.688Z,4672.00
2018-07-30T08:53:37.731Z,4676.00
2018-07-30T08:54:37.774Z,4672.00
2018-07-30T08:55:37.819Z,4672.00
2018-07-30T08:56:37.870Z,4664.00
2018-07-30T08:57:37.906Z,4660.00
2018-07-30T08:58:37.950Z,4656.00
2018-07-30T08:59:37.994Z,4644.00
2018-07-30T09:00:38.038Z,4644.00
2018-07-30T09:01:38.184Z,4648.00
2018-07-30T09:02:38.128Z,4644.00
2018-07-30T09:03:38.171Z,4644.00
2018-07-30T09:04:38.215Z,4636.00
2018-07-30T09:05:38.267Z,4620.00
2018-07-30T09:06:38.304Z,4604.00
2018-07-30T09:07:38.348Z,4600.00
2018-07-30T09:08:38.393Z,4600.00
2018-07-30T09:09:38.436Z,4604.00
2018-07-30T09:10:38.481Z,4604.00
2018-07-30T09:11:38.527Z,4600.00
2018-07-30T09:12:38.723Z,4596.00
2018-07-30T09:13:38.615Z,4580.00
2018-07-30T09:14:38.664Z,4576.00
2018-07-30T09:15:38.705Z,4568.00
2018-07-30T09:16:38.749Z,4560.00
2018-07-30T09:17:38.800Z,4556.00
2018-07-30T09:18:38.837Z,4560.00
2018-07-30T09:19:38.883Z,4560.00
2018-07-30T09:20:38.928Z,4556.00
2018-07-30T09:21:38.977Z,4552.00
2018-07-30T09:22:39.168Z,4560.00
2018-07-30T09:23:39.061Z,4560.00
2018-07-30T09:24:39.109Z,4564.00
2018-07-30T09:25:39.151Z,4588.00
2018-07-30T09:26:39.194Z,4612.00
2018-07-30T09:27:39.240Z,4620.00
2018-07-30T09:28:39.284Z,4644.00
2018-07-30T09:29:39.331Z,4660.00
2018-07-30T09:30:39.375Z,4684.00
2018-07-30T09:31:39.420Z,4712.00
2018-07-30T09:32:39.488Z,4748.00
2018-07-30T09:33:39.520Z,4776.00
2018-07-30T09:34:39.566Z,4800.00
2018-07-30T09:35:39.599Z,4808.00
2018-07-30T09:36:39.645Z,4796.00
2018-07-30T09:37:39.689Z,4780.00
2018-07-30T09:38:39.760Z,4764.00
2018-07-30T09:39:39.853Z,4760.00
2018-07-30T09:40:39.836Z,4756.00
2018-07-30T09:41:39.871Z,4752.00
2018-07-30T09:42:39.914Z,4748.00
2018-07-30T09:43:39.959Z,4744.00
2018-07-30T09:44:40.034Z,4744.00
2018-07-30T09:45:40.056Z,4752.00
2018-07-30T09:46:40.101Z,4800.00
2018-07-30T09:47:40.147Z,4880.00
2018-07-30T09:48:40.188Z,4948.00
2018-07-30T09:49:40.230Z,5004.00
2018-07-30T09:50:40.366Z,5064.00
2018-07-30T09:51:40.320Z,5148.00
2018-07-30T09:52:40.466Z,5212.00
2018-07-30T09:53:40.420Z,5228.00
2018-07-30T09:54:40.457Z,5316.00
2018-07-30T09:55:40.502Z,5516.00
2018-07-30T09:56:40.547Z,5656.00
2018-07-30T09:57:40.591Z,5800.00
2018-07-30T09:58:40.637Z,5928.00
2018-07-30T09:59:40.683Z,6004.00
2018-07-30T10:00:40.729Z,5848.00
2018-07-30T10:01:40.774Z,5780.00
2018-07-30T10:02:40.821Z,5788.00
2018-07-30T10:03:40.866Z,5760.00
2018-07-30T10:04:40.914Z,5776.00
2018-07-30T10:05:40.961Z,5804.00
2018-07-30T10:06:41.003Z,5920.00
2018-07-30T10:07:41.057Z,6004.00
2018-07-30T10:08:41.093Z,6032.00
2018-07-30T10:09:41.145Z,6024.00
2018-07-30T10:10:41.195Z,6012.00
2018-07-30T10:11:41.267Z,5948.00
2018-07-30T10:12:41.279Z,5880.00
2018-07-30T10:13:41.326Z,5764.00
2018-07-30T10:14:41.369Z,5744.00
2018-07-30T10:15:41.422Z,5776.00
2018-07-30T10:16:41.465Z,5828.00
2018-07-30T10:17:41.517Z,5900.00
2018-07-30T10:18:41.576Z,6040.00
2018-07-30T10:19:41.598Z,6304.00
2018-07-30T10:20:41.644Z,6576.00
2018-07-30T10:21:41.692Z,6920.00
2018-07-30T10:22:41.744Z,7656.00
2018-07-30T10:23:41.837Z,8360.00
2018-07-30T10:24:41.829Z,8424.00
2018-07-30T10:25:41.875Z,8184.00
2018-07-30T10:26:41.948Z,8004.00
2018-07-30T10:27:41.969Z,8076.00
2018-07-30T10:28:42.015Z,8216.00
2018-07-30T10:29:42.063Z,8372.00
2018-07-30T10:30:42.183Z,8956.00
2018-07-30T10:31:42.161Z,9252.00
2018-07-30T10:32:42.200Z,9616.00
2018-07-30T10:33:42.248Z,9604.00
2018-07-30T10:34:42.295Z,9416.00
2018-07-30T10:35:42.344Z,9268.00
2018-07-30T10:36:42.388Z,8976.00
2018-07-30T10:37:42.433Z,8852.00
2018-07-30T10:38:42.482Z,8648.00
2018-07-30T10:39:42.573Z,8116.00
2018-07-30T10:40:42.574Z,7492.00
2018-07-30T10:41:42.622Z,7088.00
2018-07-30T10:42:42.666Z,6936.00
2018-07-30T10:43:42.713Z,6796.00
2018-07-30T10:44:42.765Z,6572.00
2018-07-30T10:45:42.808Z,6516.00
2018-07-30T10:46:42.885Z,6752.00
2018-07-30T10:47:42.909Z,6908.00
2018-07-30T10:48:42.956Z,6764.00
2018-07-30T10:49:42.996Z,6136.00
2018-07-30T10:50:43.044Z,5956.00
2018-07-30T10:51:43.103Z,6088.00
2018-07-30T10:52:43.137Z,6224.00
2018-07-30T10:53:43.230Z,6456.00
2018-07-30T10:54:43.231Z,6928.00
2018-07-30T10:55:43.287Z,7488.00
2018-07-30T10:56:43.325Z,7532.00
2018-07-30T10:57:43.370Z,7336.00
2018-07-30T10:58:43.420Z,7792.00
2018-07-30T10:59:43.467Z,8080.00
2018-07-30T11:00:43.513Z,8368.00
2018-07-30T11:01:43.561Z,8360.00
2018-07-30T11:02:43.610Z,8292.00
2018-07-30T11:03:43.662Z,8560.00
2018-07-30T11:04:43.717Z,8524.00
2018-07-30T11:05:43.750Z,8548.00
2018-07-30T11:06:43.796Z,8632.00
2018-07-30T11:07:43.845Z,8468.00
2018-07-30T11:08:43.892Z,8556.00
2018-07-30T11:09:44.015Z,8848.00
2018-07-30T11:10:43.986Z,9168.00
2018-07-30T11:11:44.033Z,9460.00
2018-07-30T11:12:44.080Z,9852.00
2018-07-30T11:13:44.127Z,9800.00
2018-07-30T11:14:44.225Z,9488.00
2018-07-30T11:15:44.223Z,9172.00
2018-07-30T11:16:44.272Z,9008.00
2018-07-30T11:17:44.320Z,8888.00
2018-07-30T11:18:44.365Z,8704.00
2018-07-30T11:19:44.416Z,8340.00
2018-07-30T11:20:44.462Z,8260.00
2018-07-30T11:21:44.705Z,8012.00
2018-07-30T11:22:44.556Z,7812.00
2018-07-30T11:23:44.603Z,7872.00
2018-07-30T11:24:44.657Z,8328.00
2018-07-30T11:25:44.711Z,8840.00
2018-07-30T11:26:44.747Z,9104.00
2018-07-30T11:27:44.801Z,9188.00
2018-07-30T11:28:44.848Z,9136.00
2018-07-30T11:29:44.894Z,9024.00
2018-07-30T11:30:44.943Z,8684.00
2018-07-30T11:31:44.986Z,8628.00
2018-07-30T11:32:45.040Z,8648.00
2018-07-30T11:33:45.100Z,9076.00
2018-07-30T11:34:45.132Z,9888.00
2018-07-30T11:35:45.180Z,9992.00
2018-07-30T11:36:45.228Z,9672.00
2018-07-30T11:37:45.276Z,9792.00
2018-07-30T11:38:45.324Z,10012.00
2018-07-30T11:39:45.370Z,10200.00
2018-07-30T11:40:45.420Z,9824.00
2018-07-30T11:41:45.469Z,9504.00
2018-07-30T11:42:45.514Z,9556.00
2018-07-30T11:43:45.634Z,9692.00
2018-07-30T11:44:45.611Z,10120.00
2018-07-30T11:45:45.686Z,10304.00
2018-07-30T11:46:45.706Z,10268.00
2018-07-30T11:47:45.754Z,9904.00
2018-07-30T11:48:45.892Z,10080.00
2018-07-30T11:49:45.853Z,9992.00
2018-07-30T11:50:45.902Z,10244.00
2018-07-30T11:51:45.949Z,10704.00
2018-07-30T11:52:46.005Z,11404.00
2018-07-30T11:53:46.055Z,11976.00
2018-07-30T11:54:46.090Z,12372.00
2018-07-30T11:55:46.151Z,12400.00
2018-07-30T11:56:46.188Z,12860.00
2018-07-30T11:57:46.294Z,13240.00
2018-07-30T11:58:46.288Z,13508.00
2018-07-30T11:59:46.331Z,13588.00
2018-07-30T12:00:46.388Z,13076.00
2018-07-30T12:01:46.498Z,12532.00
2018-07-30T12:02:46.485Z,12004.00
2018-07-30T12:03:46.527Z,11636.00
2018-07-30T12:04:46.575Z,11616.00
2018-07-30T12:05:46.623Z,11776.00
2018-07-30T12:06:46.671Z,11748.00
2018-07-30T12:07:46.721Z,11952.00
2018-07-30T12:08:46.904Z,12032.00
2018-07-30T12:09:46.819Z,12264.00
2018-07-30T12:10:46.868Z,12792.00
2018-07-30T12:11:46.915Z,12980.00
2018-07-30T12:12:46.962Z,12760.00
2018-07-30T12:13:47.014Z,12372.00
2018-07-30T12:14:47.064Z,12128.00
2018-07-30T12:15:47.112Z,12040.00
2018-07-30T12:16:47.164Z,11972.00
2018-07-30T12:17:47.213Z,11980.00
2018-07-30T12:18:47.283Z,12172.00
2018-07-30T12:19:47.301Z,12168.00
2018-07-30T12:20:47.354Z,11968.00
2018-07-30T12:21:47.512Z,11436.00
2018-07-30T12:22:47.451Z,11024.00
2018-07-30T12:23:47.500Z,10424.00